x

Apk - Aripeka, Fl (arpf1) Weather Station

1:54am - Tue 23rd May 2017 All times are EDT. -4 hours from GMT.

  • Wind
    2mph, 6mph gusts
  • Air Temp 76°f
  • Sea Pressure 1015.1mb
  • Apk - Aripeka, Fl
  • Apk - Aripeka, Fl

More Historic Weather Station data

Upgrade to MSW Pro to gain access to the past 30 days of data for over 8000 Wavebouys and Weather Stations around the globe.

Join Pro

Comparision Forecast

View Surf forecast
   
Tue 05/23 1:54am 2 6 mph 1015.1mb 76f
1:48am 2 6 mph 1015.1mb 76f
12:54am 2 6 mph 1015.6mb 76f
12:48am 2 3 mph 1015.6mb 76f
Mon 05/22 11:54pm 1 3 mph 1015.8mb 77f
11:48pm 1 2 mph 1015.9mb 76f
10:54pm  -  2 mph 1016.2mb 78f
9:54pm 5 6 mph 1015.9mb 79f
9:48pm 3 5 mph 1015.9mb 79f
8:54pm 6 8 mph 1016mb 80f
8:48pm 6 9 mph 1016mb 80f
7:54pm 7 9 mph 1014.8mb 81f
7:48pm 7 11 mph 1014.7mb 81f
6:54pm 11 16 mph 1014.9mb 82f
6:48pm 10 15 mph 1014.9mb 82f
5:54pm 13 17 mph 1014.8mb 83f
5:48pm 13 20 mph 1014.9mb 83f
4:54pm 14 17 mph 1015.2mb 83f
4:48pm 14 17 mph 1015.2mb 82f
3:54pm 13 17 mph 1016mb 83f
3:48pm 13 15 mph 1016mb 83f
2:54pm 13 17 mph 1016.1mb 83f
2:48pm 13 16 mph 1016.2mb 83f
1:54pm 11 15 mph 1017mb 83f
1:48pm 10 14 mph 1017mb 83f
12:54pm 8 11 mph 1017.5mb 83f
12:48pm 9 10 mph 1017.6mb 82f
11:54am 8 10 mph 1018.2mb 82f
11:48am 8 11 mph 1018.1mb 82f
10:54am 8 10 mph 1018.1mb 82f
10:48am 3 8 mph 1018mb 82f
9:54am 3 7 mph 1018.4mb 81f
9:48am 5 8 mph 1018.5mb 81f
8:54am 5 8 mph 1018.6mb 80f
8:48am 2 7 mph 1018.6mb 80f
7:54am 2 6 mph 1018.6mb 76f
7:48am 2 5 mph 1018.7mb 76f
6:54am 1 3 mph 1018.5mb 74f
6:48am 1 3 mph 1018.5mb 73f
5:54am 2 3 mph 1018.1mb 74f
5:48am 1 3 mph 1018mb 74f
4:54am 1 3 mph 1017.9mb 74f
4:48am 1 3 mph 1017.9mb 74f
3:54am 2 5 mph 1018mb 74f
3:48am 1 2 mph 1017.9mb 74f
2:54am 3 6 mph 1018.5mb 74f
2:48am 6 7 mph 1018.6mb 74f
1:54am 2 6 mph 1018.7mb 76f
1:48am 3 6 mph 1018.9mb 76f
12:54am  -  1 mph 1019.3mb 79f
12:48am  -  1 mph 1019.3mb 79f
Sun 05/21 11:54pm  -  2 mph 1019.5mb 78f
11:48pm  -  1 mph 1019.5mb 78f
10:54pm 1 3 mph 1019.6mb 79f
10:48pm 1 3 mph 1019.5mb 79f
9:54pm 3 5 mph 1018.7mb 80f
9:48pm 2 3 mph 1018.6mb 80f
8:54pm 3 7 mph 1017.8mb 82f
8:48pm 5 7 mph 1017.7mb 82f
7:54pm 10 13 mph 1017.4mb 82f
7:48pm 9 11 mph 1017.3mb 82f
6:54pm 8 10 mph 1017.2mb 82f
6:48pm 8 10 mph 1017.2mb 82f
5:54pm 8 10 mph 1017.3mb 82f
5:48pm 8 10 mph 1017.3mb 82f
4:54pm 8 11 mph 1017.7mb 83f
4:48pm 8 11 mph 1017.8mb 83f
3:54pm 8 10 mph 1018.4mb 83f
3:48pm 8 10 mph 1018.4mb 83f
2:54pm 9 11 mph 1018.8mb 83f
2:48pm 9 11 mph 1018.9mb 82f
1:54pm 10 13 mph 1019.8mb 83f
1:48pm 9 13 mph 1019.7mb 83f
12:54pm 7 8 mph 1020.1mb 83f
11:54am 7 8 mph 1021mb 82f
11:48am 7 9 mph 1021mb 82f
10:54am 2 7 mph 1021mb 82f
10:48am 3 6 mph 1021mb 82f
9:54am 2 5 mph 1020.9mb 81f
8:54am 3 6 mph 1020.5mb 79f
8:48am 2 5 mph 1020.5mb 78f
7:54am 3 6 mph 1020.2mb 76f
7:48am 3 7 mph 1020.2mb 75f
6:54am 3 6 mph 1019.7mb 75f
6:48am 3 6 mph 1019.5mb 74f
5:54am 5 7 mph 1018.9mb 75f
5:48am 5 6 mph 1019mb 74f
4:54am 2 3 mph 1019.3mb 75f
4:48am 2 3 mph 1019.3mb 75f
3:54am 2 3 mph 1019mb 74f
2:54am 1 3 mph 1018.9mb 74f
2:48am 2 3 mph 1018.9mb 74f
1:54am 2 5 mph 1019.1mb 74f
1:48am 3 6 mph 1019.2mb 74f
12:54am 3 6 mph 1019.6mb 74f
12:48am 2 5 mph 1019.5mb 74f
Sat 05/20 11:54pm 2 3 mph 1019.7mb 74f
11:48pm 2 3 mph 1019.6mb 74f
10:54pm 6 7 mph 1018.8mb 73f
10:48pm 5 7 mph 1018.6mb 73f
9:54pm 2 5 mph 1018.8mb 73f
9:48pm 2 3 mph 1018.7mb 72f
8:54pm 2 5 mph 1018.1mb 83f
8:48pm 5 9 mph 1017.8mb 82f
7:54pm 10 13 mph 1016.8mb 83f
7:48pm 10 13 mph 1016.8mb 83f
6:54pm 10 13 mph 1016.8mb 83f
6:48pm 11 14 mph 1016.7mb 84f
5:54pm 9 11 mph 1016mb 85f
5:48pm 9 10 mph 1016mb 85f
4:54pm 7 10 mph 1016mb 85f
4:48pm 6 9 mph 1016mb 86f
3:54pm 7 10 mph 1016.5mb 85f
3:48pm 9 13 mph 1016.5mb 84f
2:54pm 10 13 mph 1017.3mb 85f
2:48pm 11 13 mph 1017.3mb 84f
1:54pm 3 8 mph 1017.7mb 92f
1:48pm 5 9 mph 1017.8mb 92f
12:54pm 5 9 mph 1018.4mb 89f
12:48pm 6 13 mph 1018.5mb 89f
11:54am 3 10 mph 1018.7mb 88f
11:48am 6 8 mph 1018.7mb 87f
10:54am 5 8 mph 1018.5mb 85f
10:48am 5 9 mph 1018.5mb 84f
9:54am 8 11 mph 1018.5mb 82f
9:48am 6 10 mph 1018.5mb 82f
8:54am 6 10 mph 1018.2mb 79f
8:48am 5 8 mph 1018.2mb 78f
7:54am 3 7 mph 1017.8mb 76f
7:48am 5 8 mph 1017.6mb 76f